Airfield :
LOGIN :

Register | Disclaimer

   EN    FR    IT 

 










Legend :    VFR   Marginal VFR   IFR   Intensive IFR   Very Intensive IFR
Visi :
Ceiling :
>= 8 km
>= 3000ft
5 to 8 km
1000 to 3000 ft
1500m to 5 km
500 to 1000 ft
800 to 1500m
200 to 500 ft
< 800m
< 200 ft
Symbols :   Thunderstorms  Fog  Heavy snow  Heavy precipitations  Wind > 20 kt
SIGMETs :     Misc.  Thunderstorms  Icing  Turbulence  Mountain Waves  Volcanic Ashes






- Airport Elevation : 459 ft
- IATA code : CER


LFRC - Cherbourg / Maupertus

CURRENT METAR :
  • 161130Z AUTO 27016KT 9999 BKN023 BKN037 BKN045 19/14 Q1013 TEMPO 27018G30KT BKN014

EXPIRED METARs :
  • 161100Z AUTO 27018KT 9999 BKN020 BKN033 BKN041 18/13 Q1013 TEMPO 27015G25KT BKN012
  • 161030Z AUTO 26018G29KT 9999 BKN020 18/14 Q1013 TEMPO BKN012
  • 161000Z AUTO 26017KT 9999 BKN017 BKN023 18/14 Q1012 TEMPO 27015G25KT BKN012
  • 160930Z AUTO 27016KT 9999 BKN014 OVC022 17/14 Q1012 TEMPO 27015G25KT BKN005
  • 160900Z AUTO 27016KT 9999 OVC013 17/14 Q1012 TEMPO 27015G25KT BKN005
  • 160830Z AUTO 27016KT 9999 BKN011 BKN016 OVC029 16/14 Q1012 TEMPO 27015G25KT BKN005
  • 160800Z AUTO 27014KT 9999 FEW004 BKN008 BKN015 15/15 Q1011 TEMPO 27015G25KT 4000 SHRA BKN009 BKN020TCU
  • 160730Z AUTO 27016KT 9999 BKN009/// OVC013/// ///TCU 15/14 Q1011 TEMPO 27015G25KT 4000 SHRA BECMG SCT010 BKN025
  • 160700Z AUTO 27014KT 9999 BKN008/// BKN012/// BKN019/// ///TCU 15/14 Q1011 TEMPO 27015G25KT 4000 SHRA

TAF TAF LFRC
Valid from the 16 at 12:00 until the 16 at 21:00 UTC


161100Z 1612/1621 26015KT 9999 BKN020
TEMPO 1612/1617 27018G30KT
PROB30
TEMPO 1612/1614 BKN014
PROB30
TEMPO 1619/1621 BKN008



MET'MAP, your aeronautical weather chart ! - Copyright ORBIFLY December 2007 - Disclaimer

ORBIFLY MET'MAP TEAM :

Programming & Development : Alexandra Zaïnal
Original concept : Baudouin d'Aumeries
Technical & hardware support : Manuel Goepfert
Assistance : Marc-Olivier Méhu




SOURCES & CREDITS :

   NOAA